Flight Track Log - Related Links

Times and Time Zones

All times are in EDT time to prevent confusion due to time zone crossing. See the N5100V flight status page for this flight to view local times or setup timezone preferences in your user account.

Time Position Orientation Groundspeed Altitude Reporting Facility
EDT Latitude Longitude Course Direction KTS MPH feet Rate Location/Type
Sun 12:20:35 PM 39.1400 -95.8442 296° West 134 154 2,300  Level Kansas City Center
Sun 12:21:35 PM 39.1542 -95.8819 302° West 134 154 2,400 300 Climbing Kansas City Center
Sun 12:22:35 PM 39.1683 -95.9117 317° Northwest 127 146 2,900 550 Climbing Kansas City Center
Sun 12:23:35 PM 39.1889 -95.9361 88° East 114 131 3,500 550 Climbing Kansas City Center
Sun 12:24:35 PM 39.1894 -95.9092 114° Southeast 54 62 4,000 200 Climbing Kansas City Center
Sun 12:25:35 PM 39.1792 -95.8797 116° Southeast 73 84 3,900  Descending Kansas City Center
Sun 12:26:35 PM 39.1692 -95.8528 112° Southeast 86 99 4,000 50 Climbing Kansas City Center
Sun 12:27:35 PM 39.1592 -95.8203 94° East 91 105 4,000 -50 Level Kansas City Center
Sun 12:28:35 PM 39.1572 -95.7883 84° East 86 99 3,900  Descending Kansas City Center
Sun 12:29:35 PM 39.1597 -95.7589 106° East 86 99 4,000 -200 Climbing Kansas City Center
Sun 12:30:35 PM 39.1539 -95.7319 134° Southeast 86 99 3,500 -850 Descending Kansas City Center
Sun 12:31:35 PM 39.1353 -95.7075 134° Southeast 86 99 2,300 -700 Descending Kansas City Center
Sun 12:32:35 PM 39.1167 -95.6831 134° Southeast 91 105 2,100 -350 Descending Kansas City Center
Sun 12:33:35 PM 39.1003 -95.6614 135° Southeast 91 105 1,600 -450 Descending Kansas City Center
Sun 12:34:35 PM 39.0858 -95.6425 132° Southeast 91 105 1,200  Descending Kansas City Center
Sun 12:35:35 PM 39.0672 -95.6156 55° Northeast 91 105 1,600 500 Climbing Kansas City Center
Sun 12:36:35 PM 39.0800 -95.5917 28° Northeast 77 89 2,200 650 Climbing Kansas City Center
Sun 12:37:35 PM 39.1072 -95.5733 57° Northeast 88 101 2,900 550 Climbing Kansas City Center
Sun 12:38:35 PM 39.1181 -95.5519 14° North 97 112 3,300 450 Climbing Kansas City Center
Sun 12:39:35 PM 39.1492 -95.5419 74° East 90 104 3,800 350 Climbing Kansas City Center
Sun 12:40:35 PM 39.1558 -95.5125 341° North 80 92 4,000 50 Climbing Kansas City Center
Sun 12:41:35 PM 39.1683 -95.5181 209° Southwest 35 40 3,900 -50 Descending Kansas City Center
Sun 12:42:35 PM 39.1431 -95.5364 204° Southwest 52 60 3,900  Level Kansas City Center
Sun 12:43:35 PM 39.1200 -95.5494 48° Northeast 102 117 3,900 -200 Level Kansas City Center
Sun 12:44:35 PM 39.1347 -95.5283 270° West 23 26 3,500 -400 Descending Kansas City Center
Sun 12:45:35 PM 39.1347 -95.5497 216° Southwest 32 37 3,100 -500 Descending Kansas City Center
Sun 12:46:35 PM 39.1178 -95.5656 221° Southwest 76 87 2,500 -650 Descending Kansas City Center
Sun 12:47:35 PM 39.0989 -95.5867 221° Southwest 87 100 1,800 -650 Descending Kansas City Center
Sun 12:48:35 PM 39.0800 -95.6078 224° Southwest 92 106 1,200 -400 Descending Kansas City Center
Sun 12:49:35 PM 39.0653 -95.6261 224° Southwest 92 106 1,000 -200 Descending Kansas City Center

Login

Don't have an account? Register now (free) for customized features, flight alerts, and more!